Time;durP1;ratioP1;P1;durP2;ratioP2;P2;SDS_P1;SDS_P2;PMS_P1;PMS_P2;Temp;Humidity;BMP_temperature;BMP_pressure;BME280_temperature;BME280_humidity;BME280_pressure;Samples;Min_cycle;Max_cycle;Signal;HPM_P1;HPM_P2
2021/12/11 00:01:37;;;;;;;28.97;17.83;;;-2.00;99.90;;;;;;5008944;28;20081;-37
2021/12/11 00:04:06;;;;;;;33.83;18.87;;;-2.00;99.90;;;;;;5005143;28;20555;-37
2021/12/11 00:06:41;;;;;;;30.93;18.23;;;-2.00;99.90;;;;;;4992284;28;20125;-36
2021/12/11 00:09:39;;;;;;;32.10;19.87;;;-2.00;99.90;;;;;;5005980;28;20132;-36
2021/12/11 00:12:09;;;;;;;32.13;19.27;;;-2.00;99.90;;;;;;5003804;28;20103;-36
2021/12/11 00:14:38;;;;;;;24.05;13.30;;;-2.00;99.90;;;;;;5005585;28;20046;-36
2021/12/11 00:17:05;;;;;;;31.50;19.73;;;-2.00;99.90;;;;;;4990404;28;20080;-37
2021/12/11 00:19:33;;;;;;;33.63;19.80;;;-2.00;99.90;;;;;;5022243;28;20037;-36
2021/12/11 00:22:16;;;;;;;35.50;20.23;;;-2.00;99.90;;;;;;5005078;28;20418;-37
2021/12/11 00:24:42;;;;;;;32.73;19.17;;;-2.00;99.90;;;;;;5005264;28;20564;-37
2021/12/11 00:27:17;;;;;;;29.73;18.53;;;-2.00;99.90;;;;;;4992017;28;20068;-36
2021/12/11 00:29:43;;;;;;;29.30;18.10;;;-2.00;99.90;;;;;;5002767;28;20470;-37
2021/12/11 00:32:13;;;;;;;29.83;17.63;;;-2.00;99.90;;;;;;5003503;28;20206;-35
2021/12/11 00:34:46;;;;;;;28.00;16.77;;;-2.00;99.90;;;;;;5002893;28;20452;-36
2021/12/11 00:37:14;;;;;;;27.63;16.80;;;-2.00;99.90;;;;;;4989591;28;20046;-33
2021/12/11 00:40:05;;;;;;;26.43;16.23;;;-2.10;99.90;;;;;;4989855;28;20034;-37
2021/12/11 00:42:34;;;;;;;27.23;16.80;;;-2.10;99.90;;;;;;5005805;28;20053;-37
2021/12/11 00:45:08;;;;;;;23.93;15.03;;;-2.10;99.90;;;;;;5008427;28;20050;-37
2021/12/11 00:47:34;;;;;;;24.33;15.60;;;-2.10;99.90;;;;;;4995464;28;20045;-36
2021/12/11 00:50:08;;;;;;;25.00;16.10;;;-2.10;99.90;;;;;;5021403;28;20049;-36
2021/12/11 00:52:44;;;;;;;25.63;15.77;;;-2.20;99.90;;;;;;5024371;28;20042;-36
2021/12/11 00:55:42;;;;;;;25.53;15.97;;;-2.20;99.90;;;;;;5016856;28;20176;-37
2021/12/11 00:58:19;;;;;;;25.60;15.73;;;-2.20;99.90;;;;;;4993575;28;20527;-36
2021/12/11 01:00:53;;;;;;;23.87;16.07;;;-2.20;99.90;;;;;;5012661;28;20065;-36
2021/12/11 01:03:32;;;;;;;30.40;18.17;;;-2.20;99.90;;;;;;5007559;28;20077;-38
2021/12/11 01:06:01;;;;;;;32.47;18.33;;;-2.10;99.90;;;;;;5012291;28;20046;-37
2021/12/11 01:08:33;;;;;;;31.67;18.77;;;-2.10;99.90;;;;;;4993562;28;20046;-37
2021/12/11 01:11:08;;;;;;;34.93;19.37;;;-2.10;99.90;;;;;;5009035;28;20517;-37
2021/12/11 01:13:39;;;;;;;31.53;17.93;;;-2.00;99.90;;;;;;5007579;28;20139;-37
2021/12/11 01:16:11;;;;;;;36.08;19.17;;;-2.00;99.90;;;;;;5007982;28;20042;-33
2021/12/11 01:18:40;;;;;;;32.07;18.83;;;-2.00;99.90;;;;;;5016601;28;20244;-37
2021/12/11 01:27:04;;;;;;;26.77;15.83;;;-2.00;99.90;;;;;;4993260;28;20111;-36
2021/12/11 01:29:32;;;;;;;25.03;15.30;;;-2.00;99.90;;;;;;5010267;28;20056;-36
2021/12/11 01:31:58;;;;;;;33.83;17.67;;;-2.10;99.90;;;;;;5007695;28;20049;-37
2021/12/11 01:34:26;;;;;;;29.63;17.73;;;-2.10;99.90;;;;;;5006689;28;20053;-37
2021/12/11 01:36:52;;;;;;;28.70;18.80;;;-2.20;99.90;;;;;;4992750;28;20050;-37
2021/12/11 01:39:23;;;;;;;31.37;18.33;;;-2.20;99.90;;;;;;5007277;28;20128;-36
2021/12/11 01:41:51;;;;;;;34.60;20.00;;;-2.20;99.90;;;;;;5004772;28;20038;-36
2021/12/11 01:44:25;;;;;;;31.90;18.93;;;-2.20;99.90;;;;;;5008543;28;20517;-36
2021/12/11 01:46:50;;;;;;;33.53;20.30;;;-2.20;99.90;;;;;;4996263;28;20045;-36
2021/12/11 01:49:20;;;;;;;34.07;22.20;;;-2.10;99.90;;;;;;5004679;28;20053;-36
2021/12/11 01:52:06;;;;;;;38.33;22.83;;;-2.10;99.90;;;;;;5007185;28;20052;-37
2021/12/11 01:54:37;;;;;;;37.53;20.93;;;-2.00;99.90;;;;;;5003753;28;20108;-37
2021/12/11 01:57:14;;;;;;;36.53;20.05;;;-2.00;99.90;;;;;;4973978;28;20555;-37
2021/12/11 01:59:44;;;;;;;35.87;20.83;;;-2.10;99.90;;;;;;4986592;28;20051;-35
2021/12/11 02:02:18;;;;;;;35.50;20.87;;;-2.10;99.90;;;;;;4991364;28;20084;-36
2021/12/11 02:04:53;;;;;;;34.53;20.70;;;-2.10;99.90;;;;;;4988746;28;20044;-37
2021/12/11 02:07:24;;;;;;;37.63;21.60;;;-2.20;99.90;;;;;;4973278;28;20058;-36
2021/12/11 02:09:56;;;;;;;36.80;21.38;;;-2.30;99.90;;;;;;5003659;28;20077;-37
2021/12/11 02:12:39;;;;;;;37.47;20.73;;;-2.30;99.90;;;;;;4986749;28;20489;-36
2021/12/11 02:15:11;;;;;;;33.77;19.80;;;-2.30;99.90;;;;;;5018561;28;20137;-36
2021/12/11 02:17:51;;;;;;;37.70;21.17;;;-2.10;99.90;;;;;;4972777;28;20049;-36
2021/12/11 02:20:28;;;;;;;35.80;21.60;;;-2.20;99.90;;;;;;4987102;28;20109;-36
2021/12/11 02:22:54;;;;;;;45.93;25.17;;;-2.20;99.90;;;;;;4988045;28;20434;-37
2021/12/11 02:25:28;;;;;;;44.43;25.33;;;-2.20;99.90;;;;;;4987027;28;20052;-36
2021/12/11 02:28:12;;;;;;;45.80;24.93;;;-2.10;99.90;;;;;;4975248;28;20050;-36
2021/12/11 02:30:41;;;;;;;46.90;25.60;;;-2.10;99.90;;;;;;4988027;28;20046;-37
2021/12/11 02:33:25;;;;;;;49.23;27.33;;;-2.00;99.90;;;;;;5017543;28;20046;-35
2021/12/11 02:35:56;;;;;;;45.03;26.13;;;-2.00;99.90;;;;;;4988020;28;20117;-36
2021/12/11 02:38:29;;;;;;;44.63;25.23;;;-1.90;99.90;;;;;;4974716;28;20077;-38
2021/12/11 02:41:23;;;;;;;40.43;22.53;;;-2.00;99.90;;;;;;4986682;28;20050;-37
2021/12/11 02:43:55;;;;;;;35.30;21.03;;;-2.00;99.90;;;;;;4985988;28;20498;-37
2021/12/11 02:46:30;;;;;;;39.00;22.60;;;-2.00;99.90;;;;;;4974785;28;20061;-37
2021/12/11 02:49:06;;;;;;;34.67;21.07;;;-2.10;99.90;;;;;;4984992;28;20489;-36
2021/12/11 02:51:34;;;;;;;32.83;20.33;;;-2.10;99.90;;;;;;4990134;28;20578;-36
2021/12/11 02:54:23;;;;;;;33.90;20.37;;;-2.20;99.90;;;;;;4988565;28;20132;-36
2021/12/11 02:56:57;;;;;;;32.13;20.27;;;-2.30;99.90;;;;;;4980071;28;20050;-37
2021/12/11 02:59:27;;;;;;;32.47;20.87;;;-2.30;99.90;;;;;;5005130;28;20124;-37
2021/12/11 03:02:01;;;;;;;33.30;20.93;;;-2.40;99.90;;;;;;5016808;28;20103;-37
2021/12/11 03:04:36;;;;;;;33.87;20.80;;;-2.40;99.90;;;;;;4989841;28;20062;-38
2021/12/11 03:07:06;;;;;;;34.27;20.63;;;-2.40;99.90;;;;;;4975467;28;20152;-35
2021/12/11 03:09:35;;;;;;;32.10;19.50;;;-2.40;99.90;;;;;;4986453;28;20283;-37
2021/12/11 03:12:07;;;;;;;29.73;19.17;;;-2.50;99.90;;;;;;4986224;28;20062;-37
2021/12/11 03:14:33;;;;;;;26.05;17.38;;;-2.50;99.90;;;;;;4985441;28;20065;-37
2021/12/11 03:16:59;;;;;;;27.07;17.83;;;-2.60;99.90;;;;;;4972480;28;20112;-35
2021/12/11 03:19:29;;;;;;;27.57;18.07;;;-2.70;99.90;;;;;;4985502;28;20448;-36
2021/12/11 03:21:57;;;;;;;25.73;16.87;;;-2.70;99.90;;;;;;4986270;28;20069;-36
2021/12/11 03:24:24;;;;;;;27.50;17.00;;;-2.70;99.90;;;;;;5018349;28;20078;-36
2021/12/11 03:26:52;;;;;;;27.93;17.90;;;-2.70;99.90;;;;;;5006459;28;20572;-36
2021/12/11 03:29:18;;;;;;;33.10;21.27;;;-2.70;99.90;;;;;;4984931;28;20122;-37
2021/12/11 03:31:45;;;;;;;37.40;23.40;;;-2.70;99.90;;;;;;4989833;28;20117;-37
2021/12/11 03:34:16;;;;;;;42.07;24.53;;;-2.70;99.90;;;;;;4985379;28;20447;-36
2021/12/11 03:36:43;;;;;;;42.43;25.60;;;-2.60;99.90;;;;;;4975770;28;20103;-36
2021/12/11 03:39:20;;;;;;;49.30;26.97;;;-2.60;99.90;;;;;;4986464;28;20034;-37
2021/12/11 03:41:48;;;;;;;50.73;29.07;;;-2.60;99.90;;;;;;4985810;28;20363;-37
2021/12/11 03:44:15;;;;;;;51.50;28.90;;;-2.50;99.90;;;;;;4987283;28;20494;-34
2021/12/11 03:46:45;;;;;;;51.73;28.90;;;-2.40;99.90;;;;;;4974875;28;20054;-38
2021/12/11 03:49:15;;;;;;;48.80;27.47;;;-2.40;99.90;;;;;;4988430;28;20335;-37
2021/12/11 03:51:45;;;;;;;49.47;26.93;;;-2.50;99.90;;;;;;4988976;28;20445;-36
2021/12/11 03:54:15;;;;;;;53.47;27.47;;;-2.40;99.90;;;;;;4987932;28;20042;-36
2021/12/11 03:56:42;;;;;;;47.57;25.80;;;-2.40;99.90;;;;;;4973257;28;20044;-38
2021/12/11 03:59:11;;;;;;;52.27;27.30;;;-2.40;99.90;;;;;;4986622;28;20501;-37
2021/12/11 04:01:52;;;;;;;49.10;27.53;;;-2.60;99.90;;;;;;4988257;28;20502;-37
2021/12/11 04:04:46;;;;;;;51.10;27.90;;;-2.40;99.90;;;;;;4984752;28;20434;-37
2021/12/11 04:07:16;;;;;;;49.33;27.53;;;-2.40;99.90;;;;;;4970351;28;20069;-36
2021/12/11 04:09:43;;;;;;;44.37;25.47;;;-2.40;99.90;;;;;;4986767;28;20105;-35
2021/12/11 04:12:10;;;;;;;46.80;25.80;;;-2.40;99.90;;;;;;4984624;28;20050;-37
2021/12/11 04:14:40;;;;;;;50.60;27.60;;;-2.40;99.90;;;;;;4985582;28;20042;-36
2021/12/11 04:17:09;;;;;;;46.80;25.23;;;-2.40;99.90;;;;;;4971069;28;20061;-37
2021/12/11 04:19:36;;;;;;;47.87;26.07;;;-2.40;99.90;;;;;;4985341;28;20100;-37
2021/12/11 04:22:03;;;;;;;44.87;26.50;;;-2.40;99.90;;;;;;4985046;28;20584;-37
2021/12/11 04:24:31;;;;;;;44.27;26.03;;;-2.40;99.90;;;;;;5035494;28;20100;-37
2021/12/11 04:27:00;;;;;;;43.10;24.67;;;-2.40;99.90;;;;;;5004966;28;20087;-36
2021/12/11 04:29:28;;;;;;;42.17;24.57;;;-2.40;99.90;;;;;;5003814;28;20054;-37
2021/12/11 04:31:56;;;;;;;42.23;24.37;;;-2.40;99.90;;;;;;5004980;28;20595;-38
2021/12/11 04:34:24;;;;;;;44.60;24.97;;;-2.50;99.90;;;;;;5006816;28;20081;-36
2021/12/11 04:36:59;;;;;;;38.73;23.17;;;-2.50;99.90;;;;;;4993881;28;20491;-37
2021/12/11 04:39:33;;;;;;;41.83;24.97;;;-2.50;99.90;;;;;;5004533;28;20124;-37
2021/12/11 04:42:05;;;;;;;40.63;24.67;;;-2.50;99.90;;;;;;5005584;28;20401;-37
2021/12/11 04:44:37;;;;;;;44.57;25.50;;;-2.50;99.90;;;;;;5003987;28;20406;-37
2021/12/11 04:47:10;;;;;;;42.37;24.83;;;-2.50;99.90;;;;;;4996301;28;20582;-38
2021/12/11 04:49:55;;;;;;;45.03;25.97;;;-2.60;99.90;;;;;;5006436;28;20117;-37
2021/12/11 04:52:55;;;;;;;47.10;25.90;;;-2.50;99.90;;;;;;5004121;28;20045;-37
2021/12/11 05:00:37;;;;;;;53.93;30.77;;;-2.40;99.90;;;;;;5004543;28;20100;-36
2021/12/11 05:10:55;;;;;;;;;;;-2.30;99.90;;;;;;5004404;28;20054;-36
2021/12/11 05:13:23;;;;;;;59.90;32.80;;;-2.20;99.90;;;;;;5002443;28;20458;-37
2021/12/11 05:15:50;;;;;;;53.60;29.97;;;-2.20;99.90;;;;;;5006692;28;20050;-36
2021/12/11 05:18:21;;;;;;;49.73;27.47;;;-2.20;99.90;;;;;;5007708;28;20483;-37
2021/12/11 05:20:51;;;;;;;44.17;24.17;;;-2.20;99.90;;;;;;5004130;28;20553;-37
2021/12/11 05:23:17;;;;;;;53.20;28.17;;;-2.30;99.90;;;;;;5003500;28;20099;-36
2021/12/11 05:25:44;;;;;;;58.10;31.03;;;-2.30;99.90;;;;;;5007621;28;20037;-38
2021/12/11 05:28:10;;;;;;;55.17;31.33;;;-2.30;99.90;;;;;;4991202;28;20429;-38
2021/12/11 05:30:40;;;;;;;60.83;30.90;;;-2.20;99.90;;;;;;5007966;28;20038;-37
2021/12/11 05:33:06;;;;;;;61.00;34.07;;;-2.20;99.90;;;;;;5012908;28;20141;-37
2021/12/11 05:35:35;;;;;;;69.33;35.57;;;-2.20;99.90;;;;;;4987601;28;20054;-37
2021/12/11 05:38:03;;;;;;;64.30;35.67;;;-2.10;99.90;;;;;;4987429;28;20520;-38
2021/12/11 05:40:29;;;;;;;74.07;37.40;;;-2.10;99.90;;;;;;4990337;28;20556;-36
2021/12/11 05:42:56;;;;;;;73.33;36.50;;;-2.00;99.90;;;;;;4987207;28;20053;-36
2021/12/11 05:45:23;;;;;;;68.10;36.23;;;-2.00;99.90;;;;;;4988089;28;20078;-37
2021/12/11 05:47:49;;;;;;;70.37;35.53;;;-1.90;99.90;;;;;;4976070;28;20062;-36
2021/12/11 05:50:22;;;;;;;67.90;34.60;;;-2.00;99.90;;;;;;4989433;28;20046;-36
2021/12/11 05:52:48;;;;;;;58.13;30.93;;;-1.90;99.90;;;;;;5019145;28;20564;-37
2021/12/11 05:55:17;;;;;;;51.63;29.10;;;-1.90;99.90;;;;;;4988008;28;20042;-36
2021/12/11 05:57:50;;;;;;;52.93;29.17;;;-2.00;99.90;;;;;;4991777;28;20414;-36
2021/12/11 06:00:18;;;;;;;50.83;27.07;;;-2.10;99.90;;;;;;5019821;28;20047;-38
2021/12/11 06:02:44;;;;;;;49.33;28.73;;;-2.10;99.90;;;;;;5001339;28;20101;-36
2021/12/11 06:05:10;;;;;;;56.40;28.90;;;-2.10;99.90;;;;;;4989254;28;20053;-37
2021/12/11 06:07:37;;;;;;;51.47;27.63;;;-2.20;99.90;;;;;;4971438;28;20338;-37
2021/12/11 06:10:11;;;;;;;46.03;26.83;;;-2.20;99.90;;;;;;5001947;28;20620;-36
2021/12/11 06:12:37;;;;;;;49.00;27.17;;;-2.20;99.90;;;;;;5018032;28;20062;-38
2021/12/11 06:15:04;;;;;;;46.10;27.10;;;-2.20;99.90;;;;;;4989651;28;20050;-36
2021/12/11 06:17:33;;;;;;;47.60;27.47;;;-2.30;99.90;;;;;;4972794;28;20046;-36
2021/12/11 06:20:00;;;;;;;53.70;29.03;;;-2.10;99.90;;;;;;4987378;28;20149;-37
2021/12/11 06:22:30;;;;;;;49.57;27.70;;;-2.30;99.90;;;;;;4991334;28;20492;-36
2021/12/11 06:24:59;;;;;;;55.30;30.20;;;-2.20;99.90;;;;;;4987481;28;20054;-36
2021/12/11 06:27:26;;;;;;;54.07;29.73;;;-2.20;99.90;;;;;;4985845;28;20056;-37
2021/12/11 06:29:52;;;;;;;53.80;28.40;;;-2.20;99.90;;;;;;4987330;28;20054;-37
2021/12/11 06:32:18;;;;;;;53.30;29.03;;;-2.30;99.90;;;;;;4985795;28;20049;-38
2021/12/11 06:34:45;;;;;;;54.93;30.87;;;-2.30;99.90;;;;;;4987158;28;20042;-37
2021/12/11 06:37:14;;;;;;;57.73;31.17;;;-2.30;99.90;;;;;;4973483;28;20051;-36
2021/12/11 06:39:41;;;;;;;59.00;32.83;;;-2.20;99.90;;;;;;4989617;28;20125;-36
2021/12/11 06:42:09;;;;;;;56.47;30.93;;;-2.20;99.90;;;;;;4988747;28;20054;-37
2021/12/11 06:44:37;;;;;;;61.93;33.23;;;-2.20;99.90;;;;;;4986941;28;20042;-38
2021/12/11 06:47:07;;;;;;;62.50;31.67;;;-2.20;99.90;;;;;;4979788;28;20053;-38
2021/12/11 06:49:35;;;;;;;62.30;32.30;;;-2.20;99.90;;;;;;5005167;28;20060;-36
2021/12/11 06:52:06;;;;;;;67.53;32.80;;;-2.20;99.90;;;;;;5008147;28;20061;-36
2021/12/11 06:54:32;;;;;;;59.47;31.50;;;-2.20;99.90;;;;;;5005716;28;20058;-36
2021/12/11 06:56:57;;;;;;;62.07;32.40;;;-2.20;99.90;;;;;;4997111;28;20045;-36
2021/12/11 06:59:23;;;;;;;67.67;34.17;;;-2.10;99.90;;;;;;4986276;28;20425;-36
2021/12/11 07:01:49;;;;;;;61.30;32.83;;;-2.10;99.90;;;;;;4989050;28;20081;-36
2021/12/11 07:04:15;;;;;;;63.57;33.13;;;-2.10;99.90;;;;;;4987124;28;20182;-37
2021/12/11 07:06:45;;;;;;;65.47;32.63;;;-2.10;99.90;;;;;;4978650;28;20573;-36
2021/12/11 07:09:13;;;;;;;63.93;33.10;;;-2.00;99.90;;;;;;4987612;28;20050;-38
2021/12/11 07:11:42;;;;;;;67.87;33.13;;;-2.10;99.90;;;;;;4988945;28;20133;-36
2021/12/11 07:14:08;;;;;;;64.77;32.57;;;-2.10;99.90;;;;;;4985420;28;20050;-37
2021/12/11 07:16:35;;;;;;;63.03;33.83;;;-2.00;99.90;;;;;;4975768;28;20041;-36
2021/12/11 07:19:01;;;;;;;65.77;34.10;;;-2.00;99.90;;;;;;4983742;28;20085;-37
2021/12/11 07:21:27;;;;;;;63.60;33.17;;;-2.00;99.90;;;;;;4985908;28;21116;-37
2021/12/11 07:23:53;;;;;;;67.10;34.03;;;-2.00;99.90;;;;;;5004127;28;20136;-36
2021/12/11 07:26:28;;;;;;;69.30;35.27;;;-2.00;99.90;;;;;;5001929;28;20136;-37
2021/12/11 07:28:56;;;;;;;60.33;32.93;;;-2.00;99.90;;;;;;5000443;28;20060;-36
2021/12/11 07:31:24;;;;;;;65.03;33.63;;;-2.00;99.90;;;;;;5005715;28;20029;-36
2021/12/11 07:33:52;;;;;;;63.83;35.33;;;-2.00;99.90;;;;;;4988455;28;20086;-35
2021/12/11 07:36:20;;;;;;;67.80;34.97;;;-2.00;99.90;;;;;;4978323;28;20502;-35
2021/12/11 07:38:46;;;;;;;70.20;34.73;;;-2.00;99.90;;;;;;4982877;28;20046;-37
2021/12/11 07:41:14;;;;;;;65.00;34.10;;;-2.00;99.90;;;;;;4985345;28;20042;-37
2021/12/11 07:43:42;;;;;;;65.07;34.67;;;-2.00;99.90;;;;;;4985045;28;20101;-36
2021/12/11 07:46:13;;;;;;;62.30;33.43;;;-2.00;99.90;;;;;;4979454;28;20746;-36
2021/12/11 07:48:40;;;;;;;61.85;33.30;;;-2.00;99.90;;;;;;4979156;28;20059;-38
2021/12/11 07:51:07;;;;;;;63.20;34.10;;;-2.00;99.90;;;;;;4988169;28;20045;-37
2021/12/11 07:53:33;;;;;;;67.40;34.43;;;-2.00;99.90;;;;;;4985045;28;20042;-37
2021/12/11 07:56:00;;;;;;;66.77;34.63;;;-2.00;99.90;;;;;;4985685;28;20414;-36
2021/12/11 07:58:29;;;;;;;67.70;33.70;;;-2.00;99.90;;;;;;4973450;28;20050;-37
2021/12/11 08:00:55;;;;;;;63.07;34.43;;;-2.00;99.90;;;;;;4988342;28;20050;-35
2021/12/11 08:03:21;;;;;;;66.40;34.33;;;-2.00;99.90;;;;;;4984878;28;20045;-36
2021/12/11 08:05:49;;;;;;;67.20;35.50;;;-2.00;99.90;;;;;;4989786;28;20423;-36
2021/12/11 08:08:16;;;;;;;64.03;35.20;;;-2.00;99.90;;;;;;4970910;28;20039;-38
2021/12/11 08:10:44;;;;;;;64.47;35.30;;;-2.00;99.90;;;;;;4986967;28;20065;-37
2021/12/11 08:13:11;;;;;;;66.30;35.33;;;-2.00;99.90;;;;;;4984629;28;20390;-36
2021/12/11 08:15:38;;;;;;;64.30;35.77;;;-2.00;99.90;;;;;;4985591;28;20042;-36
2021/12/11 08:18:06;;;;;;;67.00;36.97;;;-1.90;99.90;;;;;;4980974;28;20048;-37
2021/12/11 08:20:33;;;;;;;68.47;36.53;;;-1.90;99.90;;;;;;5003887;28;20103;-36
2021/12/11 08:22:59;;;;;;;64.27;35.47;;;-1.90;99.90;;;;;;5005246;28;20414;-36
2021/12/11 08:25:29;;;;;;;69.17;36.17;;;-1.90;99.90;;;;;;5004109;28;20070;-37
2021/12/11 08:27:56;;;;;;;78.47;38.03;;;-1.80;99.90;;;;;;4989102;28;21363;-36
2021/12/11 08:30:24;;;;;;;76.70;38.07;;;-1.80;99.90;;;;;;5003676;28;20046;-36
2021/12/11 08:32:50;;;;;;;74.40;38.70;;;-1.80;99.90;;;;;;4996731;28;20637;-37
2021/12/11 08:35:16;;;;;;;77.30;38.57;;;-1.70;99.90;;;;;;4984250;28;20041;-37
2021/12/11 08:37:46;;;;;;;69.77;38.77;;;-1.70;99.90;;;;;;4970515;28;21094;-36
2021/12/11 08:40:17;;;;;;;67.37;38.97;;;-1.60;99.90;;;;;;4984499;28;20046;-37
2021/12/11 08:42:44;;;;;;;82.53;40.03;;;-1.60;99.90;;;;;;4984182;28;20042;-37
2021/12/11 08:45:20;;;;;;;77.47;39.90;;;-1.60;99.90;;;;;;4984593;28;20125;-36
2021/12/11 08:47:47;;;;;;;73.43;38.87;;;-1.60;99.90;;;;;;4974862;28;20089;-36
2021/12/11 08:50:16;;;;;;;73.43;38.93;;;-1.60;99.90;;;;;;4988337;28;20046;-36
2021/12/11 08:52:44;;;;;;;73.90;39.93;;;-1.50;99.90;;;;;;4985310;28;20045;-37
2021/12/11 08:55:15;;;;;;;79.73;41.27;;;-1.50;99.90;;;;;;4987810;28;20049;-36
2021/12/11 08:57:41;;;;;;;77.18;39.63;;;-1.40;99.90;;;;;;4972175;28;20038;-37
2021/12/11 09:00:24;;;;;;;82.67;40.87;;;-1.40;99.90;;;;;;4987968;28;20145;-37
2021/12/11 09:03:07;;;;;;;73.57;39.07;;;-1.40;99.90;;;;;;4987487;28;20058;-37
2021/12/11 09:05:46;;;;;;;78.13;40.80;;;-1.40;99.90;;;;;;4992740;28;20061;-37
2021/12/11 09:08:17;;;;;;;83.57;41.90;;;-1.30;99.90;;;;;;4974281;28;20058;-37
2021/12/11 09:10:50;;;;;;;;;;;-1.30;99.90;;;;;;4990430;28;20065;-38
2021/12/11 09:13:36;;;;;;;78.60;40.87;;;-1.20;99.90;;;;;;5019306;28;20330;-37
2021/12/11 09:16:19;;;;;;;90.47;41.87;;;-1.20;99.90;;;;;;4988238;28;20050;-36
2021/12/11 09:19:08;;;;;;;77.13;42.80;;;-1.10;99.90;;;;;;4998301;28;20077;-36
2021/12/11 09:21:58;;;;;;;81.40;41.87;;;-1.10;99.90;;;;;;5006791;28;20643;-36
2021/12/11 09:24:29;;;;;;;89.43;43.27;;;-1.10;99.90;;;;;;4990345;28;20050;-37
2021/12/11 09:26:59;;;;;;;87.80;45.13;;;-1.00;99.90;;;;;;4974372;28;20074;-36
2021/12/11 09:29:33;;;;;;;85.53;44.17;;;-1.00;99.90;;;;;;4986628;28;20094;-35
2021/12/11 09:31:58;;;;;;;88.30;44.63;;;-0.90;99.90;;;;;;4988230;28;20149;-37
2021/12/11 09:34:30;;;;;;;88.37;45.77;;;-0.90;99.90;;;;;;5017975;28;20567;-37
2021/12/11 09:36:58;;;;;;;95.27;46.33;;;-0.80;99.90;;;;;;4975988;28;20069;-36
2021/12/11 09:39:37;;;;;;;101.57;46.97;;;-0.80;99.90;;;;;;4986855;28;20533;-37
2021/12/11 09:42:02;;;;;;;97.13;47.03;;;-0.70;99.90;;;;;;4987946;28;20493;-37
2021/12/11 09:44:37;;;;;;;97.87;47.07;;;-0.70;99.90;;;;;;5009560;28;20049;-36
2021/12/11 09:47:05;;;;;;;99.07;49.37;;;-0.60;99.90;;;;;;4993618;28;20544;-43
2021/12/11 09:49:36;;;;;;;89.97;48.07;;;-0.50;99.90;;;;;;5006761;28;20042;-37
2021/12/11 09:52:16;;;;;;;101.82;49.00;;;-0.40;99.90;;;;;;5010397;28;20519;-37
2021/12/11 09:54:44;;;;;;;101.80;48.70;;;-0.20;99.90;;;;;;5006533;28;20330;-35
2021/12/11 09:57:14;;;;;;;96.17;49.23;;;-0.10;99.90;;;;;;4993545;28;20541;-36
2021/12/11 09:59:41;;;;;;;102.57;48.33;;;-0.10;99.90;;;;;;5007997;28;20080;-36
2021/12/11 10:02:12;;;;;;;102.53;49.90;;;0.10;99.90;;;;;;5006886;28;20038;-35
2021/12/11 10:04:47;;;;;;;82.13;37.80;;;0.10;99.90;;;;;;4989431;28;20092;-36
2021/12/11 10:07:28;;;;;;;99.93;47.53;;;0.20;99.90;;;;;;4973796;28;20039;-37
2021/12/11 10:10:18;;;;;;;94.07;47.85;;;0.40;99.90;;;;;;4990178;28;20049;-36
2021/12/11 10:12:55;;;;;;;83.43;45.33;;;0.50;99.90;;;;;;4986354;28;20097;-35
2021/12/11 10:15:23;;;;;;;83.33;44.27;;;0.60;99.90;;;;;;4987319;28;20525;-36
2021/12/11 10:18:05;;;;;;;82.93;44.93;;;0.70;99.90;;;;;;4973500;28;20194;-36
2021/12/11 10:20:36;;;;;;;;;;;0.90;99.90;;;;;;4987376;28;20526;-36
2021/12/11 10:23:05;;;;;;;73.10;41.90;;;1.00;99.90;;;;;;4991768;28;20300;-37
2021/12/11 10:25:34;;;;;;;77.73;41.67;;;1.20;99.90;;;;;;4986969;28;20541;-37
2021/12/11 10:28:03;;;;;;;66.57;40.30;;;1.30;99.90;;;;;;4972851;28;20124;-36
2021/12/11 10:30:33;;;;;;;57.60;36.77;;;1.60;99.90;;;;;;4989985;28;20361;-36
2021/12/11 10:32:59;;;;;;;54.17;35.33;;;1.70;99.90;;;;;;4986810;28;20536;-37
2021/12/11 10:35:31;;;;;;;51.07;31.40;;;1.90;99.90;;;;;;4987924;28;20069;-36
2021/12/11 10:37:57;;;;;;;47.60;29.20;;;2.10;99.90;;;;;;5000433;28;20057;-37
2021/12/11 10:40:34;;;;;;;41.57;28.23;;;2.30;99.90;;;;;;4986754;28;20030;-37
2021/12/11 10:43:07;;;;;;;43.13;27.37;;;2.40;99.90;;;;;;4986398;28;20153;-36
2021/12/11 10:45:33;;;;;;;42.13;26.20;;;2.40;99.90;;;;;;4988877;28;20049;-37
2021/12/11 10:48:03;;;;;;;41.43;27.03;;;2.40;99.90;;;;;;4972445;28;20038;-37
2021/12/11 10:50:45;;;;;;;40.75;26.13;;;2.30;99.90;;;;;;4988708;28;20663;-37
2021/12/11 10:53:14;;;;;;;39.10;25.63;;;2.30;99.90;;;;;;4989154;28;20344;-36
2021/12/11 10:55:41;;;;;;;44.30;26.83;;;2.20;99.90;;;;;;4986239;28;20046;-36
2021/12/11 10:58:14;;;;;;;41.40;26.63;;;2.10;99.90;;;;;;4971725;28;20502;-35
2021/12/11 11:00:53;;;;;;;42.53;26.10;;;2.10;99.90;;;;;;4986429;28;20038;-37
2021/12/11 11:03:20;;;;;;;42.23;27.00;;;2.10;99.90;;;;;;4998987;28;20045;-37
2021/12/11 11:05:47;;;;;;;45.63;27.60;;;2.00;99.90;;;;;;5006193;28;20483;-36
2021/12/11 11:08:13;;;;;;;45.47;27.80;;;2.00;99.90;;;;;;4983081;28;20121;-34
2021/12/11 11:10:47;;;;;;;43.73;27.23;;;2.00;99.90;;;;;;4985954;28;20097;-38
2021/12/11 11:13:14;;;;;;;47.33;28.47;;;2.00;99.90;;;;;;4986195;28;20050;-37
2021/12/11 11:15:41;;;;;;;41.10;27.50;;;2.00;99.90;;;;;;4983961;28;20410;-37
2021/12/11 11:18:10;;;;;;;41.70;27.17;;;2.00;99.90;;;;;;4974744;28;20046;-36
2021/12/11 11:20:40;;;;;;;47.73;27.57;;;2.00;99.90;;;;;;4985692;28;20104;-37
2021/12/11 11:23:07;;;;;;;46.60;26.87;;;2.00;99.90;;;;;;4984467;28;20377;-36
2021/12/11 11:25:39;;;;;;;45.03;27.00;;;2.00;99.90;;;;;;4986408;28;20038;-37
2021/12/11 11:28:10;;;;;;;42.70;27.20;;;2.00;99.90;;;;;;4972888;28;20093;-36
2021/12/11 11:30:42;;;;;;;47.38;27.95;;;2.10;99.90;;;;;;5017842;28;20089;-36
2021/12/11 11:33:10;;;;;;;50.27;28.63;;;2.00;99.90;;;;;;5017463;28;20034;-37
2021/12/11 11:35:42;;;;;;;45.23;26.90;;;2.00;99.90;;;;;;4987001;28;20125;-36
2021/12/11 11:38:13;;;;;;;43.37;26.70;;;2.00;99.90;;;;;;4972470;28;20042;-36
2021/12/11 11:40:41;;;;;;;45.92;28.10;;;2.00;99.90;;;;;;4988090;28;20140;-36
2021/12/11 11:43:08;;;;;;;44.93;27.30;;;2.00;99.90;;;;;;5008526;28;20046;-36
2021/12/11 11:45:35;;;;;;;42.73;26.37;;;2.00;99.90;;;;;;5005658;28;20045;-36
2021/12/11 11:48:01;;;;;;;44.57;26.23;;;2.00;99.90;;;;;;4984169;28;20054;-36
2021/12/11 11:50:34;;;;;;;43.57;26.03;;;2.00;99.90;;;;;;4988025;28;20125;-34
2021/12/11 11:53:00;;;;;;;44.47;25.70;;;2.00;99.90;;;;;;4986661;28;20125;-36
2021/12/11 11:55:31;;;;;;;43.23;25.83;;;2.00;99.90;;;;;;4985368;28;20129;-36
2021/12/11 11:57:58;;;;;;;38.67;25.87;;;2.00;99.90;;;;;;4973755;28;20030;-36
2021/12/11 12:00:29;;;;;;;41.53;25.77;;;2.00;99.90;;;;;;4985761;28;20042;-36
2021/12/11 12:02:56;;;;;;;40.65;26.00;;;2.10;99.90;;;;;;4984200;28;20046;-38
2021/12/11 12:05:23;;;;;;;42.17;25.57;;;2.10;99.90;;;;;;4987040;28;20474;-36
2021/12/11 12:07:49;;;;;;;43.20;26.07;;;2.10;99.90;;;;;;4971722;28;20046;-36
2021/12/11 12:10:22;;;;;;;45.43;25.30;;;2.10;99.90;;;;;;4985285;28;20429;-36
2021/12/11 12:12:49;;;;;;;45.23;27.17;;;2.20;99.90;;;;;;4989625;28;20042;-36
2021/12/11 12:15:18;;;;;;;44.73;26.73;;;2.30;99.90;;;;;;5005355;28;20041;-36
2021/12/11 12:17:44;;;;;;;42.40;26.20;;;2.30;99.90;;;;;;4984830;28;20841;-37
2021/12/11 12:20:12;;;;;;;46.63;26.50;;;2.40;99.90;;;;;;4986987;28;20061;-36
2021/12/11 12:22:39;;;;;;;41.70;25.67;;;2.50;99.90;;;;;;4984022;28;20382;-36
2021/12/11 12:25:06;;;;;;;38.93;26.20;;;2.50;99.90;;;;;;4985100;28;20057;-37
2021/12/11 12:27:34;;;;;;;38.80;25.30;;;2.50;99.90;;;;;;4971732;28;21008;-37
2021/12/11 12:30:04;;;;;;;42.33;26.23;;;2.50;99.90;;;;;;4984740;28;20088;-37
2021/12/11 12:32:32;;;;;;;39.73;26.27;;;2.50;99.90;;;;;;4989210;28;20042;-37
2021/12/11 12:35:00;;;;;;;40.17;25.33;;;2.50;99.90;;;;;;4991098;28;20555;-36
2021/12/11 12:37:27;;;;;;;42.10;25.60;;;2.50;99.90;;;;;;4979206;28;20057;-39
2021/12/11 12:39:57;;;;;;;42.67;26.40;;;2.60;99.90;;;;;;4991051;28;20050;-37
2021/12/11 12:42:37;;;;;;;40.77;26.00;;;2.60;99.90;;;;;;4988098;28;20040;-36
2021/12/11 12:45:16;;;;;;;41.87;26.70;;;2.60;99.90;;;;;;4989498;28;20433;-36
2021/12/11 12:47:51;;;;;;;40.67;26.77;;;2.60;99.90;;;;;;4978627;28;20057;-37
2021/12/11 12:50:22;;;;;;;38.77;25.60;;;2.60;99.90;;;;;;4996100;28;20428;-36
2021/12/11 12:52:48;;;;;;;42.00;26.17;;;2.60;99.90;;;;;;4992761;28;20042;-35
2021/12/11 12:55:38;;;;;;;45.90;27.03;;;2.60;99.90;;;;;;4988687;28;20082;-36
2021/12/11 12:58:09;;;;;;;43.07;26.47;;;2.50;99.90;;;;;;4974401;28;20084;-37
2021/12/11 13:00:59;;;;;;;32.97;20.20;;;2.60;99.90;;;;;;5021317;28;20058;-37
2021/12/11 13:03:30;;;;;;;44.30;26.50;;;2.60;99.90;;;;;;4987784;28;20552;-35
2021/12/11 13:06:02;;;;;;;44.55;26.90;;;2.50;99.90;;;;;;5024843;28;20042;-37
2021/12/11 13:08:33;;;;;;;47.27;27.63;;;2.60;99.90;;;;;;5005204;28;20049;-37